Time,TemperatureF,DewpointF,PressureIn,WindDirection,WindDirectionDegrees,WindSpeedMPH,WindSpeedGustMPH,Humidity,HourlyPrecipIn,Conditions,Clouds,dailyrainin,SoftwareType,DateUTC
2013-01-31 00:04:00,30.2,25.7,29.75,WSW,245,26.0,28.0,83,0.00,,,0.00,Wunderground v.1.15,2013-01-31 06:04:00,
2013-01-31 00:10:00,30.1,25.6,29.76,West,270,32.0,32.0,83,0.00,,,0.00,Wunderground v.1.15,2013-01-31 06:10:00,
2013-01-31 00:15:00,30.1,25.3,29.76,WNW,284,22.0,32.0,82,0.00,,,0.00,Wunderground v.1.15,2013-01-31 06:15:00,
2013-01-31 00:20:00,29.9,25.1,29.76,WNW,286,37.0,37.0,82,0.00,,,0.00,Wunderground v.1.15,2013-01-31 06:20:00,
2013-01-31 00:26:00,29.9,25.7,29.77,WNW,300,18.0,37.0,84,0.00,,,0.00,Wunderground v.1.15,2013-01-31 06:26:00,
2013-01-31 00:32:00,29.8,25.3,29.77,West,277,21.0,26.0,83,0.00,,,0.00,Wunderground v.1.15,2013-01-31 06:32:00,
2013-01-31 00:37:00,29.7,25.2,29.78,WNW,297,26.0,27.0,83,0.00,,,0.01,Wunderground v.1.15,2013-01-31 06:37:00,
2013-01-31 00:42:00,29.7,25.7,29.79,SSW,202,7.0,22.0,85,0.00,,,0.01,Wunderground v.1.15,2013-01-31 06:42:00,
2013-01-31 00:48:00,29.5,25.5,29.78,West,273,33.0,33.0,85,0.00,,,0.01,Wunderground v.1.15,2013-01-31 06:48:00,
2013-01-31 00:53:00,29.3,25.6,29.79,West,280,33.0,33.0,86,0.00,,,0.01,Wunderground v.1.15,2013-01-31 06:53:00,
2013-01-31 00:59:00,29.2,25.5,29.80,West,262,27.0,36.0,86,0.00,,,0.01,Wunderground v.1.15,2013-01-31 06:59:00,
2013-01-31 01:04:00,29.2,25.5,29.79,WNW,303,37.0,37.0,86,0.00,,,0.01,Wunderground v.1.15,2013-01-31 07:04:00,
2013-01-31 01:10:00,29.2,25.5,29.81,West,270,31.0,31.0,86,0.00,,,0.01,Wunderground v.1.15,2013-01-31 07:10:00,
2013-01-31 01:15:00,29.1,25.2,29.80,West,264,29.0,31.0,85,0.00,,,0.01,Wunderground v.1.15,2013-01-31 07:15:00,
2013-01-31 01:21:00,28.9,24.7,29.81,West,281,34.0,34.0,84,0.00,,,0.01,Wunderground v.1.15,2013-01-31 07:21:00,
2013-01-31 01:26:00,28.9,25.0,29.82,WNW,302,22.0,34.0,85,0.00,,,0.01,Wunderground v.1.15,2013-01-31 07:26:00,
2013-01-31 01:31:00,28.8,25.1,29.82,West,278,28.0,28.0,86,0.00,,,0.01,Wunderground v.1.15,2013-01-31 07:31:00,
2013-01-31 01:37:00,28.8,25.1,29.82,WSW,244,19.0,29.0,86,0.00,,,0.01,Wunderground v.1.15,2013-01-31 07:37:00,
2013-01-31 01:42:00,28.8,24.9,29.83,East,90,13.0,20.0,85,0.00,,,0.01,Wunderground v.1.15,2013-01-31 07:42:00,
2013-01-31 01:47:00,28.7,24.2,29.82,WNW,303,23.0,34.0,83,0.00,,,0.01,Wunderground v.1.15,2013-01-31 07:47:00,
2013-01-31 01:52:00,28.7,24.2,29.83,ESE,111,9.0,21.0,83,0.00,,,0.01,Wunderground v.1.15,2013-01-31 07:52:00,
2013-01-31 01:58:00,28.7,24.5,29.83,WNW,282,24.0,26.0,84,0.00,,,0.01,Wunderground v.1.15,2013-01-31 07:58:00,
2013-01-31 02:03:00,28.6,23.8,29.83,WNW,292,31.0,33.0,82,0.00,,,0.01,Wunderground v.1.15,2013-01-31 08:03:00,
2013-01-31 02:08:00,28.6,23.8,29.84,NW,307,14.0,35.0,82,0.00,,,0.01,Wunderground v.1.15,2013-01-31 08:08:00,
2013-01-31 02:13:00,28.6,23.8,29.83,West,271,25.0,42.0,82,0.00,,,0.01,Wunderground v.1.15,2013-01-31 08:13:00,
2013-01-31 02:18:00,28.6,24.1,29.84,WNW,283,21.0,42.0,83,0.00,,,0.01,Wunderground v.1.15,2013-01-31 08:18:00,
2013-01-31 02:23:00,28.6,23.8,29.84,West,267,13.0,29.0,82,0.00,,,0.01,Wunderground v.1.15,2013-01-31 08:23:00,
2013-01-31 02:28:00,28.5,23.1,29.83,WSW,242,15.0,35.0,80,0.00,,,0.01,Wunderground v.1.15,2013-01-31 08:28:00,
2013-01-31 02:33:00,28.5,23.4,29.83,NW,304,23.0,35.0,81,0.00,,,0.01,Wunderground v.1.15,2013-01-31 08:33:00,
2013-01-31 02:38:00,28.5,23.4,29.84,WNW,287,17.0,35.0,81,0.00,,,0.01,Wunderground v.1.15,2013-01-31 08:38:00,
2013-01-31 02:43:00,28.4,23.6,29.85,West,279,19.0,25.0,82,0.00,,,0.01,Wunderground v.1.15,2013-01-31 08:43:00,
2013-01-31 02:48:00,28.3,23.8,29.85,West,273,6.0,25.0,83,0.00,,,0.01,Wunderground v.1.15,2013-01-31 08:48:00,
2013-01-31 02:53:00,28.3,23.8,29.85,WNW,284,18.0,26.0,83,0.00,,,0.01,Wunderground v.1.15,2013-01-31 08:53:00,
2013-01-31 02:58:00,28.3,23.8,29.85,West,261,16.0,26.0,83,0.00,,,0.01,Wunderground v.1.15,2013-01-31 08:58:00,
2013-01-31 03:03:00,28.3,22.9,29.86,West,267,19.0,30.0,80,0.00,,,0.01,Wunderground v.1.15,2013-01-31 09:03:00,
2013-01-31 03:08:00,28.3,22.3,29.85,NW,325,30.0,32.0,78,0.00,,,0.01,Wunderground v.1.15,2013-01-31 09:08:00,
2013-01-31 03:14:00,28.3,22.6,29.86,West,280,26.0,33.0,79,0.00,,,0.01,Wunderground v.1.15,2013-01-31 09:14:00,
2013-01-31 03:19:00,28.2,22.5,29.86,NW,313,19.0,33.0,79,0.00,,,0.01,Wunderground v.1.15,2013-01-31 09:19:00,
2013-01-31 03:24:00,28.1,22.7,29.86,NW,309,13.0,26.0,80,0.00,,,0.01,Wunderground v.1.15,2013-01-31 09:24:00,
2013-01-31 03:29:00,28.1,23.0,29.86,NW,311,14.0,32.0,81,0.00,,,0.01,Wunderground v.1.15,2013-01-31 09:29:00,
2013-01-31 03:34:00,28.1,23.0,29.86,WNW,286,29.0,29.0,81,0.00,,,0.01,Wunderground v.1.15,2013-01-31 09:34:00,
2013-01-31 03:39:00,28.0,23.2,29.86,WNW,286,17.0,29.0,82,0.00,,,0.01,Wunderground v.1.15,2013-01-31 09:39:00,
2013-01-31 03:44:00,28.1,23.6,29.87,WNW,294,11.0,17.0,83,0.00,,,0.01,Wunderground v.1.15,2013-01-31 09:44:00,
2013-01-31 03:49:00,28.0,23.8,29.87,West,281,18.0,21.0,84,0.00,,,0.01,Wunderground v.1.15,2013-01-31 09:49:00,
2013-01-31 03:54:00,28.0,23.2,29.88,West,276,23.0,28.0,82,0.00,,,0.01,Wunderground v.1.15,2013-01-31 09:54:00,
2013-01-31 03:59:00,28.0,22.9,29.88,WNW,284,9.0,28.0,81,0.00,,,0.01,Wunderground v.1.15,2013-01-31 09:59:00,
2013-01-31 04:04:00,28.0,22.9,29.88,WNW,303,11.0,22.0,81,0.00,,,0.01,Wunderground v.1.15,2013-01-31 10:04:00,
2013-01-31 04:09:00,28.0,22.3,29.88,WNW,288,10.0,24.0,79,0.00,,,0.01,Wunderground v.1.15,2013-01-31 10:09:00,
2013-01-31 04:14:00,28.1,22.1,29.88,West,260,22.0,26.0,78,0.00,,,0.01,Wunderground v.1.15,2013-01-31 10:14:00,
2013-01-31 04:19:00,28.0,22.0,29.88,West,265,10.0,26.0,78,0.00,,,0.01,Wunderground v.1.15,2013-01-31 10:19:00,
2013-01-31 04:24:00,28.0,22.0,29.88,WSW,252,21.0,24.0,78,0.00,,,0.01,Wunderground v.1.15,2013-01-31 10:24:00,
2013-01-31 04:29:00,28.0,22.0,29.89,NW,306,9.0,24.0,78,0.00,,,0.01,Wunderground v.1.15,2013-01-31 10:29:00,
2013-01-31 04:34:00,27.9,22.2,29.89,West,266,19.0,23.0,79,0.00,,,0.01,Wunderground v.1.15,2013-01-31 10:34:00,
2013-01-31 04:39:00,27.9,21.9,29.89,WNW,300,18.0,27.0,78,0.00,,,0.01,Wunderground v.1.15,2013-01-31 10:39:00,
2013-01-31 04:44:00,27.9,21.6,29.88,WSW,252,15.0,24.0,77,0.00,,,0.01,Wunderground v.1.15,2013-01-31 10:44:00,
2013-01-31 04:50:00,27.8,21.8,29.89,ESE,117,10.0,26.0,78,0.00,,,0.01,Wunderground v.1.15,2013-01-31 10:50:00,
2013-01-31 04:55:00,27.8,21.8,29.89,WSW,240,15.0,22.0,78,0.00,,,0.01,Wunderground v.1.15,2013-01-31 10:55:00,
2013-01-31 05:00:00,27.7,21.7,29.89,WSW,251,15.0,23.0,78,0.00,,,0.01,Wunderground v.1.15,2013-01-31 11:00:00,
2013-01-31 05:05:00,27.6,21.6,29.89,West,275,15.0,23.0,78,0.00,,,0.01,Wunderground v.1.15,2013-01-31 11:05:00,
2013-01-31 05:10:00,27.5,21.2,29.89,WSW,256,23.0,23.0,77,0.00,,,0.01,Wunderground v.1.15,2013-01-31 11:10:00,
2013-01-31 05:15:00,27.5,21.5,29.89,WNW,284,13.0,23.0,78,0.00,,,0.01,Wunderground v.1.15,2013-01-31 11:15:00,
2013-01-31 05:20:00,27.5,21.2,29.90,NW,306,29.0,29.0,77,0.00,,,0.01,Wunderground v.1.15,2013-01-31 11:20:00,
2013-01-31 05:25:00,27.4,20.8,29.90,WSW,255,20.0,29.0,76,0.00,,,0.01,Wunderground v.1.15,2013-01-31 11:25:00,
2013-01-31 05:30:00,27.3,21.0,29.91,NW,325,10.0,18.0,77,0.00,,,0.01,Wunderground v.1.15,2013-01-31 11:30:00,
2013-01-31 05:35:00,27.1,20.2,29.91,WNW,296,24.0,26.0,75,0.00,,,0.01,Wunderground v.1.15,2013-01-31 11:35:00,
2013-01-31 05:40:00,27.1,20.8,29.91,WNW,289,16.0,16.0,77,0.00,,,0.01,Wunderground v.1.15,2013-01-31 11:40:00,
2013-01-31 05:45:00,27.0,21.4,29.91,WSW,247,9.0,23.0,79,0.00,,,0.01,Wunderground v.1.15,2013-01-31 11:45:00,
2013-01-31 05:50:00,26.9,21.0,29.92,West,265,8.0,12.0,78,0.00,,,0.01,Wunderground v.1.15,2013-01-31 11:50:00,
2013-01-31 05:55:00,26.9,21.0,29.92,WNW,290,12.0,20.0,78,0.00,,,0.01,Wunderground v.1.15,2013-01-31 11:55:00,
2013-01-31 06:00:00,26.9,21.0,29.93,NNW,329,10.0,12.0,78,0.00,,,0.01,Wunderground v.1.15,2013-01-31 12:00:00,
2013-01-31 06:05:00,26.9,21.3,29.93,NNE,15,4.0,14.0,79,0.00,,,0.01,Wunderground v.1.15,2013-01-31 12:05:00,
2013-01-31 06:10:00,26.9,21.3,29.93,NNW,346,11.0,21.0,79,0.00,,,0.01,Wunderground v.1.15,2013-01-31 12:10:00,
2013-01-31 06:15:00,26.9,21.3,29.94,WSW,252,11.0,21.0,79,0.00,,,0.01,Wunderground v.1.15,2013-01-31 12:15:00,
2013-01-31 06:20:00,27.0,21.4,29.94,West,280,9.0,14.0,79,0.00,,,0.01,Wunderground v.1.15,2013-01-31 12:20:00,
2013-01-31 06:25:00,27.0,21.7,29.94,NW,309,8.0,18.0,80,0.00,,,0.01,Wunderground v.1.15,2013-01-31 12:25:00,
2013-01-31 06:30:00,26.9,21.6,29.95,West,263,14.0,17.0,80,0.00,,,0.01,Wunderground v.1.15,2013-01-31 12:30:00,
2013-01-31 06:35:00,26.9,21.8,29.95,West,272,11.0,17.0,81,0.00,,,0.01,Wunderground v.1.15,2013-01-31 12:35:00,
2013-01-31 06:40:00,26.9,21.8,29.95,WNW,301,12.0,16.0,81,0.00,,,0.01,Wunderground v.1.15,2013-01-31 12:40:00,
2013-01-31 06:45:00,26.9,21.8,29.96,WSW,254,11.0,16.0,81,0.00,,,0.01,Wunderground v.1.15,2013-01-31 12:45:00,
2013-01-31 06:50:00,27.0,22.2,29.95,West,267,14.0,15.0,82,0.00,,,0.01,Wunderground v.1.15,2013-01-31 12:50:00,
2013-01-31 06:56:00,27.0,22.2,29.96,WSW,247,13.0,18.0,82,0.00,,,0.01,Wunderground v.1.15,2013-01-31 12:56:00,
2013-01-31 07:01:00,27.0,22.2,29.96,West,263,11.0,19.0,82,0.00,,,0.01,Wunderground v.1.15,2013-01-31 13:01:00,
2013-01-31 07:06:00,27.0,22.2,29.97,NW,315,7.0,21.0,82,0.00,,,0.01,Wunderground v.1.15,2013-01-31 13:06:00,
2013-01-31 07:11:00,27.0,22.2,29.97,WSW,248,18.0,18.0,82,0.00,,,0.01,Wunderground v.1.15,2013-01-31 13:11:00,
2013-01-31 07:16:00,27.0,22.2,29.97,West,281,10.0,18.0,82,0.00,,,0.01,Wunderground v.1.15,2013-01-31 13:16:00,
2013-01-31 07:21:00,27.1,22.3,29.98,WSW,238,10.0,14.0,82,0.00,,,0.01,Wunderground v.1.15,2013-01-31 13:21:00,
2013-01-31 07:26:00,27.2,22.7,29.98,WSW,246,11.0,16.0,83,0.00,,,0.01,Wunderground v.1.15,2013-01-31 13:26:00,
2013-01-31 07:31:00,27.2,22.7,29.99,West,269,9.0,12.0,83,0.00,,,0.01,Wunderground v.1.15,2013-01-31 13:31:00,
2013-01-31 07:36:00,27.2,22.7,29.99,WSW,245,15.0,17.0,83,0.00,,,0.01,Wunderground v.1.15,2013-01-31 13:36:00,
2013-01-31 07:41:00,27.2,22.7,29.99,West,260,11.0,12.0,83,0.00,,,0.01,Wunderground v.1.15,2013-01-31 13:41:00,
2013-01-31 07:46:00,27.2,22.7,29.99,West,272,11.0,15.0,83,0.00,,,0.01,Wunderground v.1.15,2013-01-31 13:46:00,
2013-01-31 07:51:00,27.2,22.7,30.00,SW,216,18.0,21.0,83,0.00,,,0.01,Wunderground v.1.15,2013-01-31 13:51:00,
2013-01-31 07:56:00,27.1,22.6,30.00,SSW,211,18.0,21.0,83,0.00,,,0.01,Wunderground v.1.15,2013-01-31 13:56:00,
2013-01-31 08:01:00,27.0,22.5,30.00,NNW,336,6.0,20.0,83,0.00,,,0.01,Wunderground v.1.15,2013-01-31 14:01:00,
2013-01-31 08:06:00,26.9,22.4,30.01,SSW,209,5.0,24.0,83,0.00,,,0.01,Wunderground v.1.15,2013-01-31 14:06:00,
2013-01-31 08:11:00,26.9,22.4,30.01,West,260,13.0,19.0,83,0.00,,,0.01,Wunderground v.1.15,2013-01-31 14:11:00,
2013-01-31 08:16:00,26.7,21.7,30.01,WNW,287,18.0,22.0,81,0.00,,,0.01,Wunderground v.1.15,2013-01-31 14:16:00,
2013-01-31 08:21:00,26.5,21.5,30.01,West,270,10.0,19.0,81,0.00,,,0.01,Wunderground v.1.15,2013-01-31 14:21:00,
2013-01-31 08:26:00,26.5,21.5,30.02,WSW,248,17.0,20.0,81,0.00,,,0.01,Wunderground v.1.15,2013-01-31 14:26:00,
2013-01-31 08:31:00,26.3,21.3,30.02,West,268,13.0,17.0,81,0.00,,,0.01,Wunderground v.1.15,2013-01-31 14:31:00,
2013-01-31 08:36:00,26.4,21.4,30.02,WSW,252,5.0,17.0,81,0.00,,,0.01,Wunderground v.1.15,2013-01-31 14:36:00,
2013-01-31 08:41:00,26.5,21.5,30.02,WSW,244,23.0,26.0,81,0.00,,,0.01,Wunderground v.1.15,2013-01-31 14:41:00,
2013-01-31 08:46:00,26.4,21.4,30.03,WNW,290,13.0,26.0,81,0.00,,,0.01,Wunderground v.1.15,2013-01-31 14:46:00,
2013-01-31 08:51:00,26.5,21.5,30.03,West,278,11.0,23.0,81,0.00,,,0.01,Wunderground v.1.15,2013-01-31 14:51:00,
2013-01-31 08:56:00,26.5,21.2,30.03,WSW,254,22.0,27.0,80,0.00,,,0.01,Wunderground v.1.15,2013-01-31 14:56:00,
2013-01-31 09:02:00,26.4,21.1,30.03,West,271,15.0,25.0,80,0.00,,,0.01,Wunderground v.1.15,2013-01-31 15:02:00,
2013-01-31 09:07:00,26.6,21.8,30.04,West,280,13.0,25.0,82,0.00,,,0.01,Wunderground v.1.15,2013-01-31 15:07:00,
2013-01-31 09:12:00,26.7,21.9,30.05,WNW,299,16.0,21.0,82,0.00,,,0.01,Wunderground v.1.15,2013-01-31 15:12:00,
2013-01-31 09:17:00,26.7,21.9,30.05,West,273,14.0,28.0,82,0.00,,,0.01,Wunderground v.1.15,2013-01-31 15:17:00,
2013-01-31 09:22:00,26.8,22.0,30.05,WNW,293,8.0,23.0,82,0.00,,,0.01,Wunderground v.1.15,2013-01-31 15:22:00,
2013-01-31 09:27:00,26.3,21.0,30.05,West,271,21.0,31.0,80,0.00,,,0.01,Wunderground v.1.15,2013-01-31 15:27:00,
2013-01-31 09:32:00,26.3,21.3,30.04,SW,224,10.0,31.0,81,0.00,,,0.01,Wunderground v.1.15,2013-01-31 15:32:00,
2013-01-31 09:37:00,26.5,21.2,30.05,West,281,23.0,31.0,80,0.00,,,0.01,Wunderground v.1.15,2013-01-31 15:37:00,
2013-01-31 09:42:00,26.8,21.8,30.05,West,262,23.0,23.0,81,0.00,,,0.01,Wunderground v.1.15,2013-01-31 15:42:00,
2013-01-31 09:47:00,26.9,21.8,30.05,WNW,302,18.0,31.0,81,0.00,,,0.01,Wunderground v.1.15,2013-01-31 15:47:00,
2013-01-31 09:52:00,26.9,21.8,30.06,West,261,14.0,21.0,81,0.00,,,0.01,Wunderground v.1.15,2013-01-31 15:52:00,
2013-01-31 09:57:00,26.9,21.8,30.06,WNW,298,21.0,25.0,81,0.00,,,0.01,Wunderground v.1.15,2013-01-31 15:57:00,
2013-01-31 10:02:00,27.0,21.9,30.05,West,262,20.0,24.0,81,0.00,,,0.01,Wunderground v.1.15,2013-01-31 16:02:00,
2013-01-31 10:07:00,27.2,21.8,30.06,WSW,254,16.0,26.0,80,0.00,,,0.01,Wunderground v.1.15,2013-01-31 16:07:00,
2013-01-31 10:12:00,27.0,21.4,30.05,West,265,18.0,24.0,79,0.00,,,0.01,Wunderground v.1.15,2013-01-31 16:12:00,
2013-01-31 10:17:00,27.4,22.3,30.06,West,272,11.0,24.0,81,0.00,,,0.01,Wunderground v.1.15,2013-01-31 16:17:00,
2013-01-31 10:22:00,27.2,21.2,30.05,West,278,15.0,21.0,78,0.00,,,0.01,Wunderground v.1.15,2013-01-31 16:22:00,
2013-01-31 10:27:00,27.6,22.5,30.05,West,272,18.0,21.0,81,0.00,,,0.01,Wunderground v.1.15,2013-01-31 16:27:00,
2013-01-31 10:32:00,27.6,21.9,30.05,SW,236,16.0,22.0,79,0.00,,,0.01,Wunderground v.1.15,2013-01-31 16:32:00,
2013-01-31 10:37:00,27.7,21.7,30.06,WNW,286,13.0,22.0,78,0.00,,,0.01,Wunderground v.1.15,2013-01-31 16:37:00,
2013-01-31 10:42:00,28.1,22.1,30.06,WNW,289,15.0,22.0,78,0.00,,,0.01,Wunderground v.1.15,2013-01-31 16:42:00,
2013-01-31 10:47:00,28.7,23.3,30.07,WNW,298,6.0,22.0,80,0.00,,,0.01,Wunderground v.1.15,2013-01-31 16:47:00,
2013-01-31 10:52:00,29.9,24.5,30.07,West,262,18.0,19.0,80,0.00,,,0.01,Wunderground v.1.15,2013-01-31 16:52:00,
2013-01-31 10:57:00,29.2,22.6,30.08,WNW,291,16.0,21.0,76,0.00,,,0.01,Wunderground v.1.15,2013-01-31 16:57:00,
2013-01-31 11:02:00,29.5,22.9,30.08,West,272,15.0,24.0,76,0.00,,,0.01,Wunderground v.1.15,2013-01-31 17:02:00,
2013-01-31 11:07:00,29.7,22.4,30.08,WSW,240,16.0,33.0,74,0.00,,,0.01,Wunderground v.1.15,2013-01-31 17:07:00,
2013-01-31 11:12:00,29.9,22.3,30.08,West,261,18.0,25.0,73,0.00,,,0.01,Wunderground v.1.15,2013-01-31 17:12:00,
2013-01-31 11:17:00,30.2,22.6,30.08,WSW,248,24.0,25.0,73,0.00,,,0.01,Wunderground v.1.15,2013-01-31 17:17:00,
2013-01-31 11:22:00,30.6,23.6,30.09,SW,236,18.0,19.0,75,0.00,,,0.01,Wunderground v.1.15,2013-01-31 17:22:00,
2013-01-31 11:27:00,30.7,24.0,30.09,WNW,298,14.0,23.0,76,0.00,,,0.01,Wunderground v.1.15,2013-01-31 17:27:00,
2013-01-31 11:32:00,30.8,23.2,30.09,WSW,257,12.0,22.0,73,0.00,,,0.01,Wunderground v.1.15,2013-01-31 17:32:00,
2013-01-31 11:37:00,30.4,22.8,30.09,WSW,247,17.0,25.0,73,0.00,,,0.01,Wunderground v.1.15,2013-01-31 17:37:00,
2013-01-31 11:42:00,30.6,23.0,30.09,WNW,298,17.0,25.0,73,0.00,,,0.01,Wunderground v.1.15,2013-01-31 17:42:00,
2013-01-31 11:47:00,30.9,22.9,30.09,WSW,238,14.0,28.0,72,0.00,,,0.01,Wunderground v.1.15,2013-01-31 17:47:00,
2013-01-31 11:52:00,31.2,23.2,30.08,WNW,298,12.0,22.0,72,0.00,,,0.01,Wunderground v.1.15,2013-01-31 17:52:00,
2013-01-31 11:57:00,31.5,23.5,30.09,WSW,242,12.0,22.0,72,0.00,,,0.01,Wunderground v.1.15,2013-01-31 17:57:00,
2013-01-31 12:02:00,31.3,23.6,30.08,NNE,15,4.0,20.0,73,0.00,,,0.01,Wunderground v.1.15,2013-01-31 18:02:00,
2013-01-31 12:07:00,31.5,23.5,30.08,SW,232,14.0,20.0,72,0.00,,,0.01,Wunderground v.1.15,2013-01-31 18:07:00,
2013-01-31 12:12:00,31.7,23.0,30.08,West,273,11.0,14.0,70,0.00,,,0.01,Wunderground v.1.15,2013-01-31 18:12:00,
2013-01-31 12:17:00,31.8,23.1,30.07,WSW,249,17.0,22.0,70,0.00,,,0.01,Wunderground v.1.15,2013-01-31 18:17:00,
2013-01-31 12:22:00,31.9,23.2,30.07,West,266,14.0,19.0,70,0.00,,,0.01,Wunderground v.1.15,2013-01-31 18:22:00,
2013-01-31 12:27:00,32.5,24.5,30.07,West,273,11.0,19.0,72,0.00,,,0.01,Wunderground v.1.15,2013-01-31 18:27:00,
2013-01-31 12:33:00,32.3,23.3,30.07,West,281,12.0,19.0,69,0.00,,,0.01,Wunderground v.1.15,2013-01-31 18:33:00,
2013-01-31 12:38:00,32.5,23.1,30.07,NW,305,10.0,21.0,68,0.00,,,0.01,Wunderground v.1.15,2013-01-31 18:38:00,
2013-01-31 12:43:00,32.7,24.3,30.07,NW,309,3.0,17.0,71,0.00,,,0.01,Wunderground v.1.15,2013-01-31 18:43:00,
2013-01-31 12:48:00,32.9,24.2,30.07,West,277,11.0,21.0,70,0.00,,,0.01,Wunderground v.1.15,2013-01-31 18:48:00,
2013-01-31 12:53:00,33.2,23.4,30.07,West,262,15.0,25.0,67,0.00,,,0.01,Wunderground v.1.15,2013-01-31 18:53:00,
2013-01-31 12:58:00,33.1,23.3,30.07,WNW,282,11.0,25.0,67,0.00,,,0.01,Wunderground v.1.15,2013-01-31 18:58:00,
2013-01-31 13:03:00,33.7,23.2,30.07,NNW,346,5.0,21.0,65,0.00,,,0.01,Wunderground v.1.15,2013-01-31 19:03:00,
2013-01-31 13:08:00,33.9,23.0,30.07,West,266,12.0,21.0,64,0.00,,,0.01,Wunderground v.1.15,2013-01-31 19:08:00,
2013-01-31 13:14:00,34.0,23.1,30.07,WSW,248,19.0,19.0,64,0.00,,,0.01,Wunderground v.1.15,2013-01-31 19:14:00,
2013-01-31 13:19:00,34.3,23.4,30.07,West,280,20.0,22.0,64,0.00,,,0.01,Wunderground v.1.15,2013-01-31 19:19:00,
2013-01-31 13:24:00,34.4,22.3,30.06,West,259,20.0,22.0,61,0.00,,,0.01,Wunderground v.1.15,2013-01-31 19:24:00,
2013-01-31 13:29:00,34.7,23.0,30.06,NW,305,16.0,29.0,62,0.00,,,0.01,Wunderground v.1.15,2013-01-31 19:29:00,
2013-01-31 13:34:00,35.0,23.3,30.07,WSW,240,15.0,20.0,62,0.00,,,0.01,Wunderground v.1.15,2013-01-31 19:34:00,
2013-01-31 13:39:00,35.4,24.0,30.07,West,267,21.0,29.0,63,0.00,,,0.01,Wunderground v.1.15,2013-01-31 19:39:00,
2013-01-31 13:44:00,35.3,23.6,30.08,West,262,22.0,23.0,62,0.00,,,0.01,Wunderground v.1.15,2013-01-31 19:44:00,
2013-01-31 13:49:00,35.5,24.1,30.07,West,263,16.0,23.0,63,0.00,,,0.01,Wunderground v.1.15,2013-01-31 19:49:00,
2013-01-31 13:54:00,35.0,22.5,30.08,West,281,23.0,26.0,60,0.00,,,0.01,Wunderground v.1.15,2013-01-31 19:54:00,
2013-01-31 13:59:00,35.3,24.3,30.08,West,280,13.0,26.0,64,0.00,,,0.01,Wunderground v.1.15,2013-01-31 19:59:00,
2013-01-31 14:04:00,35.6,23.5,30.08,WNW,300,16.0,18.0,61,0.00,,,0.01,Wunderground v.1.15,2013-01-31 20:04:00,
2013-01-31 14:09:00,35.8,23.3,30.08,NW,317,9.0,18.0,60,0.00,,,0.01,Wunderground v.1.15,2013-01-31 20:09:00,
2013-01-31 14:14:00,35.5,23.4,30.08,WSW,237,17.0,18.0,61,0.00,,,0.01,Wunderground v.1.15,2013-01-31 20:14:00,
2013-01-31 14:19:00,35.5,23.8,30.08,West,274,11.0,22.0,62,0.00,,,0.01,Wunderground v.1.15,2013-01-31 20:19:00,
2013-01-31 14:24:00,35.7,23.6,30.08,WNW,294,9.0,22.0,61,0.00,,,0.01,Wunderground v.1.15,2013-01-31 20:24:00,
2013-01-31 14:29:00,35.8,24.0,30.07,NW,310,14.0,22.0,62,0.00,,,0.01,Wunderground v.1.15,2013-01-31 20:29:00,
2013-01-31 14:34:00,35.3,23.2,30.07,WNW,288,12.0,26.0,61,0.00,,,0.01,Wunderground v.1.15,2013-01-31 20:34:00,
2013-01-31 14:39:00,35.6,24.2,30.07,South,171,4.0,26.0,63,0.00,,,0.01,Wunderground v.1.15,2013-01-31 20:39:00,
2013-01-31 14:44:00,36.0,23.8,30.08,SW,232,12.0,20.0,61,0.00,,,0.01,Wunderground v.1.15,2013-01-31 20:44:00,
2013-01-31 14:49:00,35.9,23.7,30.08,SSW,212,10.0,20.0,61,0.00,,,0.01,Wunderground v.1.15,2013-01-31 20:49:00,
2013-01-31 14:54:00,36.2,24.8,30.08,WSW,250,15.0,16.0,63,0.00,,,0.01,Wunderground v.1.15,2013-01-31 20:54:00,
2013-01-31 15:00:00,36.5,24.3,30.08,NW,321,7.0,18.0,61,0.00,,,0.01,Wunderground v.1.15,2013-01-31 21:00:00,
2013-01-31 15:05:00,36.4,24.2,30.08,West,268,18.0,21.0,61,0.00,,,0.01,Wunderground v.1.15,2013-01-31 21:05:00,
2013-01-31 15:10:00,36.4,24.2,30.08,WNW,282,12.0,12.0,61,0.00,,,0.01,Wunderground v.1.15,2013-01-31 21:10:00,
2013-01-31 15:15:00,36.7,24.9,30.08,West,278,7.0,18.0,62,0.00,,,0.01,Wunderground v.1.15,2013-01-31 21:15:00,
2013-01-31 15:20:00,36.8,24.6,30.08,NW,307,16.0,16.0,61,0.00,,,0.01,Wunderground v.1.15,2013-01-31 21:20:00,
2013-01-31 15:25:00,36.7,24.1,30.08,WSW,254,15.0,23.0,60,0.00,,,0.01,Wunderground v.1.15,2013-01-31 21:25:00,
2013-01-31 15:30:00,36.7,23.7,30.08,SW,234,16.0,16.0,59,0.00,,,0.01,Wunderground v.1.15,2013-01-31 21:30:00,
2013-01-31 15:35:00,36.8,24.2,30.08,WSW,252,16.0,18.0,60,0.00,,,0.01,Wunderground v.1.15,2013-01-31 21:35:00,
2013-01-31 15:40:00,36.8,23.8,30.08,West,275,17.0,17.0,59,0.00,,,0.01,Wunderground v.1.15,2013-01-31 21:40:00,
2013-01-31 15:45:00,36.9,24.7,30.08,West,275,8.0,22.0,61,0.00,,,0.01,Wunderground v.1.15,2013-01-31 21:45:00,
2013-01-31 15:50:00,37.3,24.7,30.08,WSW,256,13.0,16.0,60,0.00,,,0.01,Wunderground v.1.15,2013-01-31 21:50:00,
2013-01-31 15:55:00,37.3,24.3,30.08,West,276,19.0,19.0,59,0.00,,,0.01,Wunderground v.1.15,2013-01-31 21:55:00,
2013-01-31 16:00:00,37.2,23.8,30.08,WNW,287,18.0,23.0,58,0.00,,,0.01,Wunderground v.1.15,2013-01-31 22:00:00,
2013-01-31 16:05:00,37.1,24.1,30.08,NNW,341,9.0,23.0,59,0.00,,,0.01,Wunderground v.1.15,2013-01-31 22:05:00,
2013-01-31 16:10:00,37.1,24.5,30.08,WSW,245,8.0,13.0,60,0.00,,,0.01,Wunderground v.1.15,2013-01-31 22:10:00,
2013-01-31 16:15:00,37.3,24.3,30.08,WSW,252,8.0,16.0,59,0.00,,,0.01,Wunderground v.1.15,2013-01-31 22:15:00,
2013-01-31 16:20:00,37.4,24.8,30.08,WSW,248,16.0,16.0,60,0.00,,,0.01,Wunderground v.1.15,2013-01-31 22:20:00,
2013-01-31 16:25:00,37.5,24.1,30.08,West,280,4.0,20.0,58,0.00,,,0.01,Wunderground v.1.15,2013-01-31 22:25:00,
2013-01-31 16:30:00,37.4,24.0,30.08,West,281,9.0,11.0,58,0.00,,,0.01,Wunderground v.1.15,2013-01-31 22:30:00,
2013-01-31 16:35:00,37.4,24.0,30.08,SW,230,6.0,16.0,58,0.00,,,0.01,Wunderground v.1.15,2013-01-31 22:35:00,
2013-01-31 16:40:00,37.3,23.9,30.07,SW,236,4.0,10.0,58,0.00,,,0.01,Wunderground v.1.15,2013-01-31 22:40:00,
2013-01-31 16:45:00,37.1,23.7,30.08,West,273,5.0,20.0,58,0.00,,,0.01,Wunderground v.1.15,2013-01-31 22:45:00,
2013-01-31 16:50:00,37.0,23.6,30.08,WSW,255,9.0,11.0,58,0.00,,,0.01,Wunderground v.1.15,2013-01-31 22:50:00,
2013-01-31 16:55:00,36.9,23.9,30.08,West,270,7.0,13.0,59,0.00,,,0.01,Wunderground v.1.15,2013-01-31 22:55:00,
2013-01-31 17:00:00,36.8,23.8,30.07,SSW,201,6.0,8.0,59,0.00,,,0.01,Wunderground v.1.15,2013-01-31 23:00:00,
2013-01-31 17:05:00,36.7,23.7,30.07,West,266,2.0,13.0,59,0.00,,,0.01,Wunderground v.1.15,2013-01-31 23:05:00,
2013-01-31 17:10:00,36.5,23.9,30.07,SSW,209,7.0,11.0,60,0.00,,,0.01,Wunderground v.1.15,2013-01-31 23:10:00,
2013-01-31 17:15:00,36.3,23.7,30.07,SSW,207,7.0,11.0,60,0.00,,,0.01,Wunderground v.1.15,2013-01-31 23:15:00,
2013-01-31 17:20:00,36.2,23.6,30.07,WNW,284,10.0,14.0,60,0.00,,,0.01,Wunderground v.1.15,2013-01-31 23:20:00,
2013-01-31 17:25:00,36.1,23.9,30.08,WSW,249,12.0,18.0,61,0.00,,,0.01,Wunderground v.1.15,2013-01-31 23:25:00,
2013-01-31 17:30:00,36.1,23.9,30.07,SW,236,4.0,10.0,61,0.00,,,0.01,Wunderground v.1.15,2013-01-31 23:30:00,
2013-01-31 17:35:00,35.9,24.1,30.08,SSW,206,7.0,10.0,62,0.00,,,0.01,Wunderground v.1.15,2013-01-31 23:35:00,
2013-01-31 17:40:00,35.7,23.9,30.08,SSW,192,6.0,10.0,62,0.00,,,0.01,Wunderground v.1.15,2013-01-31 23:40:00,
2013-01-31 17:45:00,35.7,23.9,30.08,SW,229,9.0,12.0,62,0.00,,,0.01,Wunderground v.1.15,2013-01-31 23:45:00,
2013-01-31 17:50:00,35.7,23.9,30.09,SW,234,6.0,13.0,62,0.00,,,0.01,Wunderground v.1.15,2013-01-31 23:50:00,
2013-01-31 17:55:00,35.6,23.9,30.09,WSW,240,8.0,13.0,62,0.00,,,0.01,Wunderground v.1.15,2013-01-31 23:55:00,
2013-01-31 18:00:00,35.7,23.9,30.09,West,275,5.0,11.0,62,0.00,,,0.01,Wunderground v.1.15,2013-02-01 00:00:00,
2013-01-31 18:05:00,35.7,23.9,30.09,SW,235,5.0,14.0,62,0.00,,,0.01,Wunderground v.1.15,2013-02-01 00:05:00,
2013-01-31 18:10:00,35.7,23.9,30.09,WSW,237,11.0,12.0,62,0.00,,,0.01,Wunderground v.1.15,2013-02-01 00:10:00,
2013-01-31 18:15:00,35.9,24.1,30.10,SSW,200,9.0,21.0,62,0.00,,,0.01,Wunderground v.1.15,2013-02-01 00:15:00,
2013-01-31 18:20:00,35.9,24.1,30.10,WSW,257,6.0,15.0,62,0.00,,,0.01,Wunderground v.1.15,2013-02-01 00:20:00,
2013-01-31 18:25:00,36.0,24.2,30.10,SW,233,11.0,16.0,62,0.00,,,0.01,Wunderground v.1.15,2013-02-01 00:25:00,
2013-01-31 18:30:00,36.0,24.6,30.10,SW,222,10.0,14.0,63,0.00,,,0.01,Wunderground v.1.15,2013-02-01 00:30:00,
2013-01-31 18:35:00,35.9,24.5,30.11,SW,215,11.0,20.0,63,0.00,,,0.01,Wunderground v.1.15,2013-02-01 00:35:00,
2013-01-31 18:40:00,35.9,24.5,30.10,SSW,205,11.0,14.0,63,0.00,,,0.01,Wunderground v.1.15,2013-02-01 00:40:00,
2013-01-31 18:45:00,35.9,24.9,30.11,SW,229,8.0,16.0,64,0.00,,,0.01,Wunderground v.1.15,2013-02-01 00:45:00,
2013-01-31 18:50:00,35.8,24.8,30.11,SW,228,8.0,13.0,64,0.00,,,0.01,Wunderground v.1.15,2013-02-01 00:50:00,
2013-01-31 18:55:00,35.8,24.8,30.11,WSW,240,13.0,17.0,64,0.00,,,0.01,Wunderground v.1.15,2013-02-01 00:55:00,
2013-01-31 19:00:00,35.8,24.8,30.11,SSW,208,9.0,15.0,64,0.00,,,0.01,Wunderground v.1.15,2013-02-01 01:00:00,
2013-01-31 19:05:00,35.7,24.7,30.10,WSW,242,12.0,15.0,64,0.00,,,0.01,Wunderground v.1.15,2013-02-01 01:05:00,
2013-01-31 19:11:00,35.7,24.7,30.10,SSW,209,15.0,17.0,64,0.00,,,0.01,Wunderground v.1.15,2013-02-01 01:11:00,
2013-01-31 19:16:00,35.7,24.7,30.10,SW,226,12.0,17.0,64,0.00,,,0.01,Wunderground v.1.15,2013-02-01 01:16:00,
2013-01-31 19:21:00,35.7,24.3,30.10,SW,231,10.0,13.0,63,0.00,,,0.01,Wunderground v.1.15,2013-02-01 01:21:00,
2013-01-31 19:26:00,35.9,24.5,30.10,SSW,211,7.0,18.0,63,0.00,,,0.01,Wunderground v.1.15,2013-02-01 01:26:00,
2013-01-31 19:31:00,36.0,24.6,30.10,South,191,10.0,17.0,63,0.00,,,0.01,Wunderground v.1.15,2013-02-01 01:31:00,
2013-01-31 19:36:00,36.1,24.3,30.10,SSW,211,12.0,17.0,62,0.00,,,0.01,Wunderground v.1.15,2013-02-01 01:36:00,
2013-01-31 19:41:00,36.1,24.3,30.10,SSW,211,9.0,19.0,62,0.00,,,0.01,Wunderground v.1.15,2013-02-01 01:41:00,
2013-01-31 19:46:00,36.0,24.6,30.09,SW,215,11.0,19.0,63,0.00,,,0.01,Wunderground v.1.15,2013-02-01 01:46:00,
2013-01-31 19:51:00,36.1,24.7,30.09,SW,231,10.0,17.0,63,0.00,,,0.01,Wunderground v.1.15,2013-02-01 01:51:00,
2013-01-31 19:56:00,36.3,24.5,30.08,SW,217,11.0,19.0,62,0.00,,,0.01,Wunderground v.1.15,2013-02-01 01:56:00,
2013-01-31 20:01:00,36.6,24.4,30.09,SW,219,8.0,23.0,61,0.00,,,0.01,Wunderground v.1.15,2013-02-01 02:01:00,
2013-01-31 20:06:00,36.6,24.4,30.09,SW,223,22.0,23.0,61,0.00,,,0.01,Wunderground v.1.15,2013-02-01 02:06:00,
2013-01-31 20:11:00,36.7,24.5,30.09,WSW,237,9.0,16.0,61,0.00,,,0.01,Wunderground v.1.15,2013-02-01 02:11:00,
2013-01-31 20:16:00,36.6,24.4,30.09,SW,221,8.0,18.0,61,0.00,,,0.01,Wunderground v.1.15,2013-02-01 02:16:00,
2013-01-31 20:21:00,36.5,24.7,30.09,SW,218,17.0,17.0,62,0.00,,,0.01,Wunderground v.1.15,2013-02-01 02:21:00,
2013-01-31 20:26:00,36.4,24.6,30.09,SW,217,10.0,19.0,62,0.00,,,0.01,Wunderground v.1.15,2013-02-01 02:26:00,
2013-01-31 20:31:00,36.2,24.4,30.09,SSW,200,5.0,18.0,62,0.00,,,0.01,Wunderground v.1.15,2013-02-01 02:31:00,
2013-01-31 20:36:00,36.2,24.8,30.09,SW,230,9.0,20.0,63,0.00,,,0.01,Wunderground v.1.15,2013-02-01 02:36:00,
2013-01-31 20:41:00,35.9,24.9,30.10,WSW,238,13.0,18.0,64,0.00,,,0.01,Wunderground v.1.15,2013-02-01 02:41:00,
2013-01-31 20:46:00,35.7,24.7,30.10,South,178,8.0,18.0,64,0.00,,,0.01,Wunderground v.1.15,2013-02-01 02:46:00,
2013-01-31 20:51:00,35.7,25.1,30.10,WSW,245,16.0,16.0,65,0.00,,,0.01,Wunderground v.1.15,2013-02-01 02:51:00,
2013-01-31 20:56:00,36.0,25.0,30.10,SW,236,17.0,22.0,64,0.00,,,0.01,Wunderground v.1.15,2013-02-01 02:56:00,
2013-01-31 21:01:00,35.9,24.9,30.10,SSW,207,18.0,23.0,64,0.00,,,0.01,Wunderground v.1.15,2013-02-01 03:01:00,
2013-01-31 21:06:00,35.9,24.9,30.09,SE,142,5.0,25.0,64,0.00,,,0.01,Wunderground v.1.15,2013-02-01 03:06:00,
2013-01-31 21:11:00,36.0,25.0,30.08,SSW,205,14.0,17.0,64,0.00,,,0.01,Wunderground v.1.15,2013-02-01 03:11:00,
2013-01-31 21:16:00,36.4,25.0,30.08,SW,223,18.0,26.0,63,0.00,,,0.01,Wunderground v.1.15,2013-02-01 03:16:00,
2013-01-31 21:21:00,36.8,25.0,30.08,SSW,213,18.0,25.0,62,0.00,,,0.01,Wunderground v.1.15,2013-02-01 03:21:00,
2013-01-31 21:26:00,37.0,25.2,30.08,SW,216,16.0,25.0,62,0.00,,,0.01,Wunderground v.1.15,2013-02-01 03:26:00,
2013-01-31 21:31:00,37.0,25.2,30.08,SSW,195,16.0,21.0,62,0.00,,,0.01,Wunderground v.1.15,2013-02-01 03:31:00,
2013-01-31 21:36:00,37.1,25.3,30.08,SW,232,17.0,26.0,62,0.00,,,0.01,Wunderground v.1.15,2013-02-01 03:36:00,
2013-01-31 21:41:00,37.2,25.4,30.07,SW,223,31.0,31.0,62,0.00,,,0.01,Wunderground v.1.15,2013-02-01 03:41:00,
2013-01-31 21:46:00,37.3,25.5,30.07,SW,223,24.0,31.0,62,0.00,,,0.01,Wunderground v.1.15,2013-02-01 03:46:00,
2013-01-31 21:51:00,37.3,25.5,30.07,WSW,248,11.0,28.0,62,0.00,,,0.01,Wunderground v.1.15,2013-02-01 03:51:00,
2013-01-31 21:56:00,37.2,25.4,30.07,SSW,199,17.0,28.0,62,0.00,,,0.01,Wunderground v.1.15,2013-02-01 03:56:00,
2013-01-31 22:01:00,37.0,25.6,30.07,SSW,201,7.0,24.0,63,0.00,,,0.01,Wunderground v.1.15,2013-02-01 04:01:00,
2013-01-31 22:06:00,37.0,25.6,30.08,WSW,246,17.0,29.0,63,0.00,,,0.01,Wunderground v.1.15,2013-02-01 04:06:00,
2013-01-31 22:11:00,37.0,25.6,30.07,SSW,209,18.0,26.0,63,0.00,,,0.01,Wunderground v.1.15,2013-02-01 04:11:00,
2013-01-31 22:17:00,36.8,25.8,30.08,SW,236,15.0,26.0,64,0.00,,,0.01,Wunderground v.1.15,2013-02-01 04:17:00,
2013-01-31 22:22:00,36.6,25.9,30.08,SSW,211,25.0,26.0,65,0.00,,,0.01,Wunderground v.1.15,2013-02-01 04:22:00,
2013-01-31 22:27:00,36.5,25.8,30.08,SW,230,16.0,32.0,65,0.00,,,0.01,Wunderground v.1.15,2013-02-01 04:27:00,
2013-01-31 22:32:00,36.5,26.2,30.08,WSW,240,15.0,24.0,66,0.00,,,0.01,Wunderground v.1.15,2013-02-01 04:32:00,
2013-01-31 22:37:00,36.6,25.9,30.08,WSW,258,19.0,24.0,65,0.00,,,0.01,Wunderground v.1.15,2013-02-01 04:37:00,
2013-01-31 22:42:00,36.9,26.2,30.09,SSW,211,12.0,27.0,65,0.00,,,0.01,Wunderground v.1.15,2013-02-01 04:42:00,
2013-01-31 22:47:00,37.1,26.0,30.08,WSW,244,17.0,29.0,64,0.00,,,0.01,Wunderground v.1.15,2013-02-01 04:47:00,
2013-01-31 22:52:00,37.3,26.2,30.08,SSW,208,16.0,28.0,64,0.00,,,0.01,Wunderground v.1.15,2013-02-01 04:52:00,
2013-01-31 22:57:00,37.5,26.4,30.08,WNW,288,25.0,34.0,64,0.00,,,0.01,Wunderground v.1.15,2013-02-01 04:57:00,
2013-01-31 23:00:00,37.4,26.3,30.08,SW,219,24.0,34.0,64,0.00,,,0.01,Wunderground v.1.15,2013-02-01 05:00:00,
2013-01-31 23:01:00,37.4,26.3,30.08,SW,220,21.0,23.0,64,0.00,,,0.01,Wunderground v.1.15,2013-02-01 05:01:00,
2013-01-31 23:02:00,37.4,26.3,30.08,SW,215,22.0,23.0,64,0.00,,,0.01,Wunderground v.1.15,2013-02-01 05:02:00,
2013-01-31 23:07:00,37.5,26.4,30.08,WSW,244,29.0,29.0,64,0.00,,,0.01,Wunderground v.1.15,2013-02-01 05:07:00,
2013-01-31 23:12:00,37.5,26.8,30.08,WSW,246,22.0,29.0,65,0.00,,,0.01,Wunderground v.1.15,2013-02-01 05:12:00,
2013-01-31 23:17:00,37.5,26.8,30.08,WSW,242,28.0,29.0,65,0.00,,,0.01,Wunderground v.1.15,2013-02-01 05:17:00,
2013-01-31 23:22:00,37.5,26.8,30.08,SW,225,19.0,27.0,65,0.00,,,0.01,Wunderground v.1.15,2013-02-01 05:22:00,
2013-01-31 23:27:00,37.3,27.0,30.08,East,80,15.0,28.0,66,0.00,,,0.01,Wunderground v.1.15,2013-02-01 05:27:00,
2013-01-31 23:32:00,36.7,27.5,30.08,West,259,33.0,40.0,69,0.00,,,0.01,Wunderground v.1.15,2013-02-01 05:32:00,
2013-01-31 23:37:00,36.7,27.5,30.08,WNW,296,19.0,40.0,69,0.00,,,0.01,Wunderground v.1.15,2013-02-01 05:37:00,
2013-01-31 23:42:00,36.1,27.6,30.08,West,262,29.0,39.0,71,0.00,,,0.01,Wunderground v.1.15,2013-02-01 05:42:00,
2013-01-31 23:47:00,35.9,27.7,30.08,West,275,29.0,39.0,72,0.00,,,0.01,Wunderground v.1.15,2013-02-01 05:47:00,
2013-01-31 23:52:00,36.4,28.2,30.09,WSW,252,17.0,36.0,72,0.00,,,0.01,Wunderground v.1.15,2013-02-01 05:52:00,
2013-01-31 23:57:00,36.5,28.3,30.08,WNW,292,15.0,36.0,72,0.00,,,0.01,Wunderground v.1.15,2013-02-01 05:57:00,